createdAt,value
2019-01-11T00:01:42.538Z,75.80
2019-01-11T00:04:11.646Z,68.47
2019-01-11T00:06:40.773Z,54.60
2019-01-11T00:09:10.447Z,36.88
2019-01-11T00:11:39.538Z,33.33
2019-01-11T00:14:08.745Z,23.62
2019-01-11T00:16:37.933Z,21.90
2019-01-11T00:19:07.378Z,22.95
2019-01-11T00:21:36.454Z,23.83
2019-01-11T00:24:06.691Z,25.25
2019-01-11T00:26:35.800Z,30.10
2019-01-11T00:29:05.298Z,26.07
2019-01-11T00:31:34.412Z,25.72
2019-01-11T00:34:03.506Z,25.17
2019-01-11T00:36:32.605Z,24.50
2019-01-11T00:39:01.701Z,22.32
2019-01-11T00:41:30.840Z,24.37
2019-01-11T00:43:59.938Z,26.30
2019-01-11T00:46:29.029Z,19.45
2019-01-11T00:48:58.157Z,26.15
2019-01-11T00:51:27.254Z,29.20
2019-01-11T00:53:56.346Z,29.05
2019-01-11T00:56:25.510Z,29.30
2019-01-11T00:58:54.617Z,29.37
2019-01-11T01:01:23.734Z,28.23
2019-01-11T01:03:52.845Z,33.25
2019-01-11T01:06:21.970Z,29.35
2019-01-11T01:08:51.081Z,25.45
2019-01-11T01:11:20.264Z,26.48
2019-01-11T01:13:49.363Z,26.68
2019-01-11T01:16:18.482Z,26.55
2019-01-11T01:18:47.602Z,27.65
2019-01-11T01:21:16.706Z,32.85
2019-01-11T01:23:45.821Z,27.50
2019-01-11T01:26:14.899Z,26.95
2019-01-11T01:28:44.138Z,27.13
2019-01-11T01:31:13.245Z,27.02
2019-01-11T01:33:42.335Z,26.93
2019-01-11T01:36:11.447Z,24.32
2019-01-11T01:38:40.548Z,25.05
2019-01-11T01:41:09.664Z,26.95
2019-01-11T01:43:38.761Z,28.20
2019-01-11T01:46:07.873Z,25.88
2019-01-11T01:48:36.961Z,30.77
2019-01-11T01:51:06.105Z,24.05
2019-01-11T01:53:35.212Z,28.15
2019-01-11T01:56:04.400Z,27.35
2019-01-11T01:58:33.505Z,30.62
2019-01-11T02:01:02.605Z,25.20
2019-01-11T02:03:31.717Z,23.57
2019-01-11T02:06:00.818Z,27.82
2019-01-11T02:08:29.920Z,25.23
2019-01-11T02:10:59.037Z,23.15
2019-01-11T02:13:28.525Z,23.73
2019-01-11T02:15:57.731Z,31.65
2019-01-11T02:18:26.849Z,26.42
2019-01-11T02:20:55.961Z,25.85
2019-01-11T02:23:25.040Z,24.10
2019-01-11T02:25:54.196Z,21.12
2019-01-11T02:28:23.299Z,29.52
2019-01-11T02:30:52.965Z,18.32
2019-01-11T02:33:25.036Z,21.12
2019-01-11T02:35:53.109Z,20.02
2019-01-11T02:38:22.251Z,20.02
2019-01-11T02:40:51.360Z,22.00
2019-01-11T02:43:20.515Z,25.65
2019-01-11T02:45:49.629Z,21.97
2019-01-11T02:48:18.747Z,22.55
2019-01-11T02:50:47.857Z,20.00
2019-01-11T02:53:17.057Z,24.02
2019-01-11T02:55:46.236Z,26.15
2019-01-11T02:58:15.332Z,21.73
2019-01-11T03:00:44.425Z,26.90
2019-01-11T03:03:13.535Z,22.87
2019-01-11T03:05:42.624Z,25.17
2019-01-11T03:08:11.728Z,19.05
2019-01-11T03:10:40.859Z,24.87
2019-01-11T03:13:10.050Z,28.90
2019-01-11T03:15:39.138Z,24.70
2019-01-11T03:18:08.266Z,28.95
2019-01-11T03:20:37.362Z,25.82
2019-01-11T03:23:06.478Z,24.75
2019-01-11T03:25:35.567Z,28.30
2019-01-11T03:28:04.664Z,26.65
2019-01-11T03:30:33.771Z,26.77
2019-01-11T03:33:02.850Z,24.32
2019-01-11T03:35:31.940Z,23.95
2019-01-11T03:38:01.120Z,26.07
2019-01-11T03:40:30.253Z,23.00
2019-01-11T03:42:59.346Z,22.70
2019-01-11T03:45:30.005Z,26.82
2019-01-11T03:47:59.252Z,23.00
2019-01-11T03:50:28.382Z,24.57
2019-01-11T03:52:57.467Z,25.02
2019-01-11T03:55:26.563Z,21.82
2019-01-11T03:57:55.672Z,25.43
2019-01-11T04:00:25.441Z,24.25
2019-01-11T04:02:54.855Z,27.37
2019-01-11T04:05:24.038Z,24.10
2019-01-11T04:07:53.144Z,23.25
2019-01-11T04:10:25.632Z,26.40
2019-01-11T04:12:54.740Z,28.73
2019-01-11T04:15:24.148Z,24.43
2019-01-11T04:18:11.765Z,22.67
2019-01-11T04:20:40.859Z,25.72
2019-01-11T04:23:09.967Z,24.65
2019-01-11T04:25:44.087Z,26.70
2019-01-11T04:28:13.167Z,21.97
2019-01-11T04:30:42.295Z,28.40
2019-01-11T04:33:11.403Z,22.98
2019-01-11T04:35:40.511Z,25.20
2019-01-11T04:38:09.614Z,27.58
2019-01-11T04:40:38.786Z,26.65
2019-01-11T04:43:07.877Z,31.33
2019-01-11T04:45:36.964Z,22.67
2019-01-11T04:48:06.091Z,27.58
2019-01-11T04:50:35.189Z,24.85
2019-01-11T04:53:04.414Z,21.70
2019-01-11T04:55:33.525Z,24.60
2019-01-11T04:58:02.616Z,23.98
2019-01-11T05:00:31.713Z,26.90
2019-01-11T05:03:00.827Z,25.72
2019-01-11T05:05:29.937Z,24.20
2019-01-11T05:07:59.051Z,25.90
2019-01-11T05:10:28.205Z,27.77
2019-01-11T05:12:59.267Z,21.10
2019-01-11T05:15:28.365Z,26.50
2019-01-11T05:17:57.489Z,22.58
2019-01-11T05:20:26.599Z,25.10
2019-01-11T05:22:55.767Z,26.68
2019-01-11T05:25:24.883Z,25.45
2019-01-11T05:27:53.987Z,32.28
2019-01-11T05:30:23.085Z,26.82
2019-01-11T05:32:52.200Z,27.22
2019-01-11T05:35:21.290Z,31.15
2019-01-11T05:37:50.384Z,24.80
2019-01-11T05:40:20.079Z,27.55
2019-01-11T05:42:49.290Z,30.90
2019-01-11T05:45:18.769Z,29.20
2019-01-11T05:47:48.103Z,26.75
2019-01-11T05:50:24.082Z,28.75
2019-01-11T05:52:49.451Z,29.05
2019-01-11T05:55:37.609Z,29.65
2019-01-11T05:58:44.113Z,32.78
2019-01-11T06:01:14.178Z,29.07
2019-01-11T06:03:43.281Z,29.02
2019-01-11T06:06:12.423Z,30.95
2019-01-11T06:08:41.803Z,29.90
2019-01-11T06:11:11.245Z,34.73
2019-01-11T06:13:40.339Z,30.85
2019-01-11T06:16:09.475Z,33.55
2019-01-11T06:18:38.603Z,31.40
2019-01-11T06:21:07.703Z,30.85
2019-01-11T06:23:37.209Z,28.50
2019-01-11T06:26:06.312Z,31.40
2019-01-11T06:28:35.430Z,30.80
2019-01-11T06:31:04.537Z,30.27
2019-01-11T06:33:33.662Z,33.95
2019-01-11T06:36:02.768Z,32.48
2019-01-11T06:38:31.878Z,36.70
2019-01-11T06:41:01.124Z,34.35
2019-01-11T06:43:30.242Z,31.60
2019-01-11T06:45:59.356Z,31.10
2019-01-11T06:48:47.500Z,35.68
2019-01-11T06:51:16.616Z,37.70
2019-01-11T06:53:45.998Z,33.95
2019-01-11T06:56:15.169Z,29.92
2019-01-11T06:58:44.358Z,33.80
2019-01-11T07:01:13.453Z,31.73
2019-01-11T07:03:42.539Z,33.55
2019-01-11T07:06:11.634Z,36.20
2019-01-11T07:08:40.819Z,33.63
2019-01-11T07:11:09.948Z,33.15
2019-01-11T07:13:39.055Z,33.18
2019-01-11T07:16:08.152Z,35.45
2019-01-11T07:18:37.257Z,31.93
2019-01-11T07:21:06.342Z,39.30
2019-01-11T07:23:35.465Z,34.38
2019-01-11T07:26:04.592Z,31.50
2019-01-11T07:28:33.741Z,36.28
2019-01-11T07:31:11.852Z,37.50
2019-01-11T07:33:41.199Z,39.05
2019-01-11T07:36:30.050Z,41.45
2019-01-11T07:38:59.152Z,40.38
2019-01-11T07:41:28.352Z,38.90
2019-01-11T07:43:57.435Z,42.53
2019-01-11T07:46:26.577Z,42.40
2019-01-11T07:48:55.677Z,37.38
2019-01-11T07:51:24.769Z,39.63
2019-01-11T07:53:53.881Z,50.23
2019-01-11T07:56:22.978Z,46.08
2019-01-11T07:58:52.092Z,45.35
2019-01-11T08:01:21.203Z,39.33
2019-01-11T08:03:50.318Z,43.48
2019-01-11T08:06:19.590Z,35.85
2019-01-11T08:08:48.703Z,43.98
2019-01-11T08:11:17.798Z,38.28
2019-01-11T08:13:46.897Z,38.85
2019-01-11T08:16:16.026Z,38.67
2019-01-11T08:18:45.130Z,36.93
2019-01-11T08:21:14.313Z,37.83
2019-01-11T08:23:43.380Z,38.48
2019-01-11T08:26:12.490Z,40.70
2019-01-11T08:28:41.598Z,40.23
2019-01-11T08:31:10.708Z,41.02
2019-01-11T08:33:39.818Z,36.75
2019-01-11T08:36:08.932Z,39.10
2019-01-11T08:38:38.055Z,36.65
2019-01-11T08:41:07.169Z,38.85
2019-01-11T08:43:36.311Z,39.03
2019-01-11T08:46:05.424Z,35.88
2019-01-11T08:48:34.518Z,39.25
2019-01-11T08:51:03.702Z,36.50
2019-01-11T08:53:32.786Z,39.88
2019-01-11T08:56:08.101Z,40.73
2019-01-11T08:58:32.736Z,38.67
2019-01-11T09:01:01.868Z,34.38
2019-01-11T09:03:31.060Z,34.38
2019-01-11T09:06:00.144Z,39.23
2019-01-11T09:08:29.252Z,35.83
2019-01-11T09:10:58.368Z,39.88
2019-01-11T09:13:28.963Z,35.05
2019-01-11T09:15:58.072Z,41.55
2019-01-11T09:18:34.792Z,45.50
2019-01-11T09:21:09.378Z,39.70
2019-01-11T09:23:34.755Z,37.90
2019-01-11T09:26:03.942Z,41.08
2019-01-11T09:28:33.134Z,45.23
2019-01-11T09:31:02.245Z,42.60
2019-01-11T09:33:31.343Z,44.58
2019-01-11T09:36:00.462Z,45.92
2019-01-11T09:38:29.565Z,40.63
2019-01-11T09:40:58.716Z,41.73
2019-01-11T09:43:27.854Z,41.50
2019-01-11T09:45:58.048Z,44.98
2019-01-11T09:48:27.179Z,48.85
2019-01-11T09:50:56.350Z,52.50
2019-01-11T09:53:25.464Z,43.13
2019-01-11T09:55:54.568Z,41.00
2019-01-11T09:58:23.704Z,42.00
2019-01-11T10:00:58.986Z,47.25
2019-01-11T10:03:23.667Z,53.42
2019-01-11T10:05:52.760Z,44.77
2019-01-11T10:08:21.880Z,46.70
2019-01-11T10:10:51.004Z,51.30
2019-01-11T10:13:20.098Z,44.43
2019-01-11T10:15:49.208Z,40.73
2019-01-11T10:18:18.362Z,38.13
2019-01-11T10:20:49.726Z,34.50
2019-01-11T10:23:18.818Z,39.83
2019-01-11T10:25:47.994Z,34.47
2019-01-11T10:28:17.090Z,35.70
2019-01-11T10:30:46.205Z,32.33
2019-01-11T10:33:15.316Z,26.57
2019-01-11T10:35:44.436Z,33.92
2019-01-11T10:38:13.530Z,31.47
2019-01-11T10:40:42.646Z,29.10
2019-01-11T10:43:11.735Z,31.20
2019-01-11T10:45:40.880Z,31.10
2019-01-11T10:48:09.998Z,28.70
2019-01-11T10:50:39.092Z,25.80
2019-01-11T10:53:08.234Z,27.63
2019-01-11T10:55:37.346Z,34.27
2019-01-11T10:58:06.464Z,31.80
2019-01-11T11:00:35.658Z,30.03
2019-01-11T11:03:04.771Z,26.40
2019-01-11T11:05:33.870Z,26.57
2019-01-11T11:08:02.963Z,26.67
2019-01-11T11:10:32.076Z,30.20
2019-01-11T11:13:01.202Z,32.10
2019-01-11T11:15:30.312Z,27.07
2019-01-11T11:17:59.438Z,26.70
2019-01-11T11:20:28.562Z,27.93
2019-01-11T11:22:57.680Z,26.97
2019-01-11T11:25:26.777Z,28.30
2019-01-11T11:27:55.863Z,29.10
2019-01-11T11:30:25.446Z,28.07
2019-01-11T11:32:58.884Z,29.27
2019-01-11T11:35:31.622Z,28.70
2019-01-11T11:38:00.759Z,30.43
2019-01-11T11:40:31.142Z,28.53
2019-01-11T11:43:00.290Z,30.70
2019-01-11T11:45:29.399Z,29.07
2019-01-11T11:47:58.579Z,29.40
2019-01-11T11:50:27.696Z,27.67
2019-01-11T11:52:56.806Z,29.53
2019-01-11T11:55:25.991Z,29.20
2019-01-11T11:57:55.091Z,27.00
2019-01-11T12:00:26.420Z,28.77
2019-01-11T12:02:55.595Z,29.70
2019-01-11T12:05:24.706Z,27.27
2019-01-11T12:07:53.813Z,32.13
2019-01-11T12:10:22.986Z,30.70
2019-01-11T12:12:52.089Z,30.40
2019-01-11T12:15:21.195Z,32.63
2019-01-11T12:17:50.306Z,34.97
2019-01-11T12:20:31.512Z,30.30
2019-01-11T12:23:01.040Z,31.13
2019-01-11T12:25:30.137Z,36.33
2019-01-11T12:27:59.259Z,39.33
2019-01-11T12:30:28.349Z,44.80
2019-01-11T12:32:57.515Z,30.47
2019-01-11T12:35:26.695Z,37.33
2019-01-11T12:37:55.792Z,34.53
2019-01-11T12:40:24.906Z,29.27
2019-01-11T12:42:54.041Z,32.10
2019-01-11T12:45:23.175Z,33.93
2019-01-11T12:47:52.370Z,42.17
2019-01-11T12:50:26.165Z,30.00
2019-01-11T12:52:55.264Z,32.80
2019-01-11T12:55:24.383Z,34.20
2019-01-11T12:57:53.516Z,29.17
2019-01-11T13:00:23.914Z,27.23
2019-01-11T13:02:53.214Z,27.00
2019-01-11T13:05:22.611Z,25.47
2019-01-11T13:07:51.709Z,28.77
2019-01-11T13:10:21.082Z,21.40
2019-01-11T13:12:50.248Z,28.83
2019-01-11T13:15:21.235Z,26.23
2019-01-11T13:17:50.428Z,23.37
2019-01-11T13:20:20.743Z,22.23
2019-01-11T13:22:50.029Z,120.70
2019-01-11T13:25:19.187Z,247.70
2019-01-11T13:27:48.353Z,28.47
2019-01-11T13:30:18.825Z,25.67
2019-01-11T13:32:48.005Z,20.80
2019-01-11T13:35:17.204Z,21.23
2019-01-11T13:37:46.325Z,23.83
2019-01-11T13:40:18.289Z,27.87
2019-01-11T13:42:47.485Z,23.20
2019-01-11T13:45:16.684Z,24.33
2019-01-11T13:47:45.819Z,20.35
2019-01-11T13:50:34.573Z,22.40
2019-01-11T13:53:04.383Z,19.17
2019-01-11T13:55:33.493Z,22.13
2019-01-11T13:58:02.615Z,24.20
2019-01-11T14:00:31.807Z,20.10
2019-01-11T14:03:01.251Z,27.43
2019-01-11T14:05:30.377Z,22.10
2019-01-11T14:07:59.503Z,22.42
2019-01-11T14:10:28.693Z,21.50
2019-01-11T14:12:59.261Z,24.37
2019-01-11T14:15:28.417Z,27.30
2019-01-11T14:17:57.587Z,23.35
2019-01-11T14:20:26.687Z,24.10
2019-01-11T14:22:55.823Z,23.43
2019-01-11T14:25:24.944Z,22.13
2019-01-11T14:27:54.067Z,27.17
2019-01-11T14:30:24.966Z,25.15
2019-01-11T14:32:54.054Z,25.17
2019-01-11T14:35:23.263Z,24.37
2019-01-11T14:37:52.450Z,22.70
2019-01-11T14:40:21.672Z,21.87
2019-01-11T14:42:50.807Z,21.53
2019-01-11T14:45:19.969Z,22.10
2019-01-11T14:47:49.105Z,22.40
2019-01-11T14:50:19.139Z,25.10
2019-01-11T14:52:48.389Z,22.37
2019-01-11T14:55:17.505Z,28.13
2019-01-11T14:57:46.629Z,23.07
2019-01-11T15:00:20.711Z,26.85
2019-01-11T15:02:49.867Z,24.23
2019-01-11T15:05:19.574Z,26.02
2019-01-11T15:07:48.710Z,26.00
2019-01-11T15:10:17.980Z,23.87
2019-01-11T15:12:47.997Z,30.08
2019-01-11T15:15:17.209Z,27.87
2019-01-11T15:17:46.350Z,29.48
2019-01-11T15:20:17.271Z,30.23
2019-01-11T15:22:46.756Z,27.50
2019-01-11T15:25:15.898Z,29.53
2019-01-11T15:27:45.034Z,27.45
2019-01-11T15:30:19.055Z,30.02
2019-01-11T15:32:48.183Z,33.30
2019-01-11T15:35:17.573Z,32.25
2019-01-11T15:37:46.979Z,34.78
2019-01-11T15:40:20.284Z,41.98
2019-01-11T15:42:49.404Z,289.47
2019-01-11T15:45:18.522Z,38.42
2019-01-11T15:47:47.670Z,36.63
2019-01-11T15:50:36.769Z,34.93
2019-01-11T15:53:05.940Z,33.25
2019-01-11T15:55:35.179Z,36.80
2019-01-11T15:58:04.436Z,35.50
2019-01-11T16:00:36.716Z,42.98
2019-01-11T16:03:05.875Z,37.33
2019-01-11T16:05:35.037Z,45.55
2019-01-11T16:08:04.392Z,42.90
2019-01-11T16:10:33.501Z,44.20
2019-01-11T16:13:46.754Z,50.05
2019-01-11T16:16:53.728Z,48.33
2019-01-11T16:19:22.914Z,39.18
2019-01-11T16:21:52.065Z,44.70
2019-01-11T16:24:21.528Z,45.35
2019-01-11T16:26:50.683Z,40.60
2019-01-11T16:29:19.794Z,42.15
2019-01-11T16:31:48.956Z,44.08
2019-01-11T16:34:18.161Z,45.58
2019-01-11T16:36:47.260Z,51.35
2019-01-11T16:39:16.461Z,56.37
2019-01-11T16:41:45.697Z,49.80
2019-01-11T16:44:14.890Z,46.50
2019-01-11T16:46:44.042Z,44.15
2019-01-11T16:49:13.170Z,44.18
2019-01-11T16:51:42.301Z,50.60
2019-01-11T16:54:11.513Z,255.98
2019-01-11T16:56:40.652Z,130.50
2019-01-11T16:59:09.888Z,54.10
2019-01-11T17:01:39.035Z,49.25
2019-01-11T17:04:08.248Z,46.95
2019-01-11T17:06:37.474Z,49.07
2019-01-11T17:09:08.617Z,48.38
2019-01-11T17:11:37.870Z,47.73
2019-01-11T17:14:07.277Z,43.10
2019-01-11T17:16:36.507Z,49.25
2019-01-11T17:19:05.664Z,52.07
2019-01-11T17:21:34.842Z,46.02
2019-01-11T17:24:04.492Z,47.15
2019-01-11T17:26:33.612Z,64.40
2019-01-11T17:29:02.836Z,55.10
2019-01-11T17:31:31.957Z,62.03
2019-01-11T17:34:01.184Z,47.40
2019-01-11T17:36:30.348Z,46.23
2019-01-11T17:38:59.594Z,52.07
2019-01-11T17:41:28.792Z,45.70
2019-01-11T17:43:57.941Z,64.03
2019-01-11T17:46:27.436Z,65.62
2019-01-11T17:48:56.540Z,55.43
2019-01-11T17:51:25.786Z,50.33
2019-01-11T17:53:56.016Z,73.95
2019-01-11T17:56:25.222Z,51.42
2019-01-11T17:58:54.363Z,55.92
2019-01-11T18:01:23.578Z,46.35
2019-01-11T18:03:52.735Z,43.53
2019-01-11T18:06:21.875Z,43.30
2019-01-11T18:08:51.139Z,44.30
2019-01-11T18:11:21.722Z,44.70
2019-01-11T18:13:50.834Z,53.27
2019-01-11T18:16:19.974Z,41.10
2019-01-11T18:18:49.203Z,50.17
2019-01-11T18:21:18.455Z,43.83
2019-01-11T18:23:48.682Z,38.73
2019-01-11T18:26:17.837Z,43.48
2019-01-11T18:28:46.993Z,40.37
2019-01-11T18:31:16.281Z,45.30
2019-01-11T18:33:45.460Z,59.60
2019-01-11T18:36:14.624Z,62.43
2019-01-11T18:38:43.809Z,92.30
2019-01-11T18:41:12.958Z,58.73
2019-01-11T18:43:43.576Z,44.48
2019-01-11T18:46:13.145Z,38.33
2019-01-11T18:48:42.441Z,48.13
2019-01-11T18:51:12.071Z,46.23
2019-01-11T18:53:41.269Z,53.17
2019-01-11T18:56:10.512Z,54.87
2019-01-11T18:58:39.794Z,48.77
2019-01-11T19:01:09.314Z,65.57
2019-01-11T19:03:40.910Z,54.15
2019-01-11T19:06:14.072Z,82.67
2019-01-11T19:08:43.339Z,116.37
2019-01-11T19:11:12.668Z,70.75
2019-01-11T19:13:42.234Z,61.97
2019-01-11T19:16:11.557Z,102.30
2019-01-11T19:18:40.929Z,74.03
2019-01-11T19:21:12.094Z,78.62
2019-01-11T19:23:41.409Z,76.55
2019-01-11T19:26:11.924Z,72.40
2019-01-11T19:28:41.612Z,86.02
2019-01-11T19:31:12.215Z,59.60
2019-01-11T19:33:41.541Z,73.90
2019-01-11T19:36:11.259Z,103.02
2019-01-11T19:38:42.920Z,85.37
2019-01-11T19:41:12.283Z,84.60
2019-01-11T19:43:42.701Z,67.60
2019-01-11T19:46:12.156Z,106.53
2019-01-11T19:48:41.966Z,359.32
2019-01-11T19:51:11.260Z,80.38
2019-01-11T19:53:42.132Z,59.40
2019-01-11T19:56:11.542Z,63.63
2019-01-11T19:58:41.336Z,86.37
2019-01-11T20:01:10.973Z,125.30
2019-01-11T20:03:40.717Z,90.37
2019-01-11T20:06:10.096Z,142.70
2019-01-11T20:08:40.752Z,118.17
2019-01-11T20:11:10.431Z,152.20
2019-01-11T20:13:41.482Z,79.80
2019-01-11T20:16:13.019Z,54.70
2019-01-11T20:18:42.434Z,46.65
2019-01-11T20:21:12.165Z,71.13
2019-01-11T20:23:41.813Z,70.32
2019-01-11T20:26:12.711Z,56.70
2019-01-11T20:28:42.041Z,42.30
2019-01-11T20:31:11.945Z,50.40
2019-01-11T20:33:41.225Z,50.53
2019-01-11T20:36:11.193Z,56.00
2019-01-11T20:38:40.508Z,47.45
2019-01-11T20:41:09.923Z,43.02
2019-01-11T20:43:40.113Z,56.88
2019-01-11T20:46:09.425Z,51.83
2019-01-11T20:48:38.725Z,52.55
2019-01-11T20:51:08.921Z,54.57
2019-01-11T20:53:41.788Z,48.37
2019-01-11T20:56:11.383Z,51.17
2019-01-11T20:58:41.863Z,91.63
2019-01-11T21:01:12.386Z,65.07
2019-01-11T21:03:42.064Z,97.20
2019-01-11T21:06:11.441Z,287.77
2019-01-11T21:08:42.284Z,131.05
2019-01-11T21:11:11.645Z,117.47
2019-01-11T21:13:42.022Z,193.13
2019-01-11T21:16:11.349Z,77.32
2019-01-11T21:18:42.024Z,124.40
2019-01-11T21:21:11.401Z,102.17
2019-01-11T21:23:40.803Z,126.77
2019-01-11T21:26:10.136Z,79.40
2019-01-11T21:28:40.749Z,186.47
2019-01-11T21:31:10.033Z,113.05
2019-01-11T21:33:39.304Z,307.53
2019-01-11T21:36:08.601Z,160.63
2019-01-11T21:38:37.962Z,112.25
2019-01-11T21:41:07.353Z,103.73
2019-01-11T21:43:37.230Z,63.52
2019-01-11T21:46:07.515Z,108.60
2019-01-11T21:48:36.789Z,151.47
2019-01-11T21:51:06.052Z,159.10
2019-01-11T21:53:35.316Z,236.97
2019-01-11T21:56:04.687Z,238.70
2019-01-11T21:58:34.423Z,319.50
2019-01-11T22:01:04.537Z,181.20
2019-01-11T22:03:33.869Z,274.97
2019-01-11T22:06:03.102Z,183.80
2019-01-11T22:08:32.431Z,273.90
2019-01-11T22:11:02.119Z,355.70
2019-01-11T22:13:31.421Z,283.17
2019-01-11T22:16:00.613Z,145.43
2019-01-11T22:18:32.258Z,408.53
2019-01-11T22:21:01.529Z,93.72
2019-01-11T22:23:31.909Z,126.97
2019-01-11T22:26:01.393Z,183.07
2019-01-11T22:28:30.695Z,110.23
2019-01-11T22:30:59.839Z,209.53
2019-01-11T22:33:29.047Z,185.10
2019-01-11T22:35:58.285Z,83.63
2019-01-11T22:38:27.473Z,109.20
2019-01-11T22:40:56.711Z,103.67
2019-01-11T22:43:25.844Z,319.13
2019-01-11T22:45:55.102Z,148.47
2019-01-11T22:48:25.942Z,352.10
2019-01-11T22:50:55.152Z,178.77
2019-01-11T22:53:24.482Z,88.23
2019-01-11T22:55:53.687Z,195.23
2019-01-11T22:58:22.802Z,83.43
2019-01-11T23:01:20.240Z,202.37
2019-01-11T23:03:52.293Z,79.40
2019-01-11T23:07:17.871Z,84.23
2019-01-11T23:09:54.479Z,75.27
2019-01-11T23:12:46.716Z,85.23
2019-01-11T23:15:20.388Z,98.33
2019-01-11T23:17:56.219Z,126.90
2019-01-11T23:20:25.321Z,194.27
2019-01-11T23:22:54.951Z,131.43
2019-01-11T23:25:24.079Z,161.27
2019-01-11T23:27:53.209Z,168.05
2019-01-11T23:30:22.327Z,159.37
2019-01-11T23:32:51.470Z,101.77
2019-01-11T23:35:20.725Z,122.00
2019-01-11T23:37:49.852Z,310.40
2019-01-11T23:40:18.968Z,130.87
2019-01-11T23:42:48.099Z,84.97
2019-01-11T23:45:17.373Z,249.90
2019-01-11T23:47:46.475Z,130.37
2019-01-11T23:50:17.481Z,247.40
2019-01-11T23:52:46.617Z,152.07
2019-01-11T23:55:15.787Z,204.10
2019-01-11T23:57:44.916Z,184.63
